Time;durP1;ratioP1;P1;durP2;ratioP2;P2;SDS_P1;SDS_P2;PMS_P1;PMS_P2;Temp;Humidity;BMP_temperature;BMP_pressure;BME280_temperature;BME280_humidity;BME280_pressure;Samples;Min_cycle;Max_cycle;Signal;HPM_P1;HPM_P2
2021/01/30 00:00:41;;;;;;;20.08;13.30;;;;;;;-0.28;75.92;99546.16;1803596;79;20987;-82
2021/01/30 00:03:11;;;;;;;29.98;16.15;;;;;;;-0.28;75.77;99552.59;1803598;79;21193;-83
2021/01/30 00:05:38;;;;;;;34.73;17.62;;;;;;;-0.29;75.79;99555.21;1803548;79;20963;-82
2021/01/30 00:08:09;;;;;;;25.37;15.68;;;;;;;-0.29;75.70;99552.63;1803520;79;21433;-82
2021/01/30 00:10:36;;;;;;;34.83;17.50;;;;;;;-0.29;75.58;99557.78;1803599;79;20919;-81
2021/01/30 00:13:05;;;;;;;41.90;18.50;;;;;;;-0.29;75.37;99559.94;1804360;79;21002;-80
2021/01/30 00:15:33;;;;;;;27.77;16.20;;;;;;;-0.30;75.32;99564.68;1812409;79;21200;-81
2021/01/30 00:18:01;;;;;;;29.27;16.15;;;;;;;-0.30;75.05;99559.53;1812375;79;21041;-81
2021/01/30 00:20:34;;;;;;;33.08;17.40;;;;;;;-0.33;74.83;99567.36;1812303;79;20958;-81
2021/01/30 00:23:04;;;;;;;42.53;20.15;;;;;;;-0.36;74.61;99571.77;1852330;77;20990;-82
2021/01/30 00:25:33;;;;;;;32.50;16.73;;;;;;;-0.37;74.33;99576.08;1780712;80;21020;-82
2021/01/30 00:28:01;;;;;;;27.50;16.70;;;;;;;-0.40;74.22;99577.89;1789501;80;21383;-81
2021/01/30 00:30:31;;;;;;;54.33;20.37;;;;;;;-0.40;74.01;99585.62;1852453;77;20895;-82
2021/01/30 00:33:00;;;;;;;41.75;20.17;;;;;;;-0.43;73.96;99595.58;1780524;80;21438;-80
2021/01/30 00:35:30;;;;;;;34.67;18.77;;;;;;;-0.44;73.76;99587.47;1789570;80;20915;-81
2021/01/30 00:37:57;;;;;;;32.83;19.75;;;;;;;-0.47;73.74;99596.56;1852786;77;20914;-81
2021/01/30 00:40:26;;;;;;;28.40;18.00;;;;;;;-0.46;73.70;99600.39;1781124;80;21334;-81
2021/01/30 00:42:55;;;;;;;28.75;17.20;;;;;;;-0.47;73.54;99596.14;1789618;80;20951;-86
2021/01/30 00:45:24;;;;;;;25.65;17.87;;;;;;;-0.45;73.44;99601.22;1852699;77;21021;-85
2021/01/30 00:47:53;;;;;;;33.42;18.95;;;;;;;-0.44;73.37;99604.21;1780432;80;21027;-84
2021/01/30 00:50:22;;;;;;;29.27;18.82;;;;;;;-0.46;73.30;99599.10;1789694;80;20915;-84
2021/01/30 00:52:50;;;;;;;34.03;19.70;;;;;;;-0.44;73.15;99611.48;1852486;77;21376;-84
2021/01/30 00:55:21;;;;;;;29.63;18.75;;;;;;;-0.45;73.08;99608.95;1780349;80;20928;-85
2021/01/30 00:57:50;;;;;;;37.00;21.37;;;;;;;-0.42;72.94;99609.70;1789655;80;20891;-84
2021/01/30 01:00:23;;;;;;;31.40;20.15;;;;;;;-0.44;72.87;99612.77;1852563;77;20895;-87
2021/01/30 01:02:51;;;;;;;30.95;20.90;;;;;;;-0.45;72.67;99618.80;1750126;80;20980;-83
2021/01/30 01:05:22;;;;;;;38.75;22.27;;;;;;;-0.46;72.66;99626.14;1789730;80;21486;-80
2021/01/30 01:07:50;;;;;;;34.05;21.82;;;;;;;-0.47;72.54;99631.33;1852562;76;21041;-84
2021/01/30 01:10:21;;;;;;;35.68;22.17;;;;;;;-0.49;72.50;99629.24;1780474;80;20945;-83
2021/01/30 01:12:49;;;;;;;31.07;21.52;;;;;;;-0.52;72.50;99634.50;1789632;80;21495;-83
2021/01/30 01:15:18;;;;;;;33.35;21.05;;;;;;;-0.53;72.41;99641.84;1844673;77;20927;-82
2021/01/30 01:17:49;;;;;;;35.75;23.27;;;;;;;-0.57;72.45;99636.38;1772147;81;21357;-82
2021/01/30 01:20:20;;;;;;;34.05;21.73;;;;;;;-0.59;72.40;99644.14;1775601;80;20978;-81
2021/01/30 01:22:49;;;;;;;38.42;22.93;;;;;;;-0.65;72.49;99641.30;1803778;79;20938;-84
2021/01/30 01:25:20;;;;;;;39.55;25.77;;;;;;;-0.65;72.44;99651.59;1803771;79;20927;-85
2021/01/30 01:27:49;;;;;;;40.60;22.45;;;;;;;-0.67;72.53;99649.95;1804009;79;20916;-84
2021/01/30 01:30:18;;;;;;;30.60;21.15;;;;;;;-0.68;72.46;99659.41;1803887;79;21795;-84
2021/01/30 01:32:46;;;;;;;38.02;22.07;;;;;;;-0.67;72.36;99660.25;1803644;79;20943;-83
2021/01/30 01:35:22;;;;;;;40.00;23.20;;;;;;;-0.69;72.32;99665.47;1803992;79;21357;-84
2021/01/30 01:37:51;;;;;;;37.13;23.77;;;;;;;-0.68;72.25;99659.86;1803418;79;21622;-85
2021/01/30 01:40:27;;;;;;;43.58;23.62;;;;;;;-0.69;72.14;99659.45;1803809;79;20884;-80
2021/01/30 01:43:04;;;;;;;37.58;22.75;;;;;;;-0.70;72.12;99656.04;1804709;79;21218;-81
2021/01/30 01:45:32;;;;;;;40.98;23.38;;;;;;;-0.70;72.03;99656.48;1804274;79;21444;-82
2021/01/30 01:51:07;;;;;;;36.48;24.15;;;;;;;-0.68;71.79;99655.55;1848124;76;22727;-80
2021/01/30 01:53:38;;;;;;;41.53;24.63;;;;;;;-0.70;71.74;99665.05;1787587;79;21361;-78
2021/01/30 01:56:10;;;;;;;41.05;23.77;;;;;;;-0.69;71.76;99662.02;1818231;78;21375;-79
2021/01/30 01:58:41;;;;;;;40.23;24.50;;;;;;;-0.65;71.69;99656.73;1818142;78;21459;-81
2021/01/30 02:01:10;;;;;;;35.88;23.83;;;;;;;-0.62;71.62;99666.13;1818474;77;21009;-79
2021/01/30 02:03:40;;;;;;;32.35;21.60;;;;;;;-0.60;71.60;99663.06;1819067;79;20923;-79
2021/01/30 02:06:08;;;;;;;33.98;22.07;;;;;;;-0.57;71.46;99665.98;1818296;79;21218;-79
2021/01/30 02:08:36;;;;;;;43.68;23.47;;;;;;;-0.56;71.31;99682.66;1818218;79;21412;-78
2021/01/30 02:11:05;;;;;;;36.20;23.05;;;;;;;-0.54;71.18;99674.90;1818094;79;20938;-80
2021/01/30 02:13:48;;;;;;;35.65;22.05;;;;;;;-0.56;71.08;99672.36;1818121;78;20947;-79
2021/01/30 02:16:43;;;;;;;30.57;21.50;;;;;;;-0.55;71.06;99664.22;1815228;79;20915;-81
2021/01/30 02:19:56;;;;;;;33.98;22.93;;;;;;;-0.57;70.99;99663.42;1818440;78;21013;-83
2021/01/30 02:22:39;;;;;;;33.60;23.07;;;;;;;-0.58;70.94;99662.55;1817473;77;21348;-81
2021/01/30 02:25:12;;;;;;;35.13;24.23;;;;;;;-0.58;70.88;99678.00;1818006;79;20942;-81
2021/01/30 02:28:04;;;;;;;37.30;24.98;;;;;;;-0.60;70.87;99679.80;1818068;78;20962;-82
2021/01/30 02:31:24;;;;;;;39.67;24.32;;;;;;;-0.64;70.96;99680.33;1818129;77;21477;-83
2021/01/30 02:34:07;;;;;;;38.95;24.85;;;;;;;-0.65;70.97;99676.05;1769054;81;21521;-83
2021/01/30 02:36:47;;;;;;;39.33;25.08;;;;;;;-0.61;70.94;99679.84;1777179;79;22741;-83
2021/01/30 02:39:24;;;;;;;;;;;;;;;-0.69;70.97;99683.91;1752292;80;20995;-82
2021/01/30 02:42:16;;;;;;;37.50;26.33;;;;;;;-0.70;70.92;99689.95;1749835;80;21825;-82
2021/01/30 02:45:08;;;;;;;35.33;24.37;;;;;;;-0.72;70.97;99686.58;1749739;80;20967;-82
2021/01/30 02:47:40;;;;;;;39.63;27.93;;;;;;;-0.74;71.04;99691.77;1739384;82;21063;-81
2021/01/30 02:50:14;;;;;;;42.98;26.70;;;;;;;-0.72;70.96;99695.59;1749688;82;21006;-80
2021/01/30 02:52:44;;;;;;;39.27;24.77;;;;;;;-0.75;70.99;99696.53;1750040;80;21338;-82
2021/01/30 02:55:13;;;;;;;37.33;24.70;;;;;;;-0.76;70.91;99693.98;1749771;80;21369;-81
2021/01/30 02:57:41;;;;;;;47.38;28.45;;;;;;;-0.77;70.89;99697.02;1720513;82;21039;-84
2021/01/30 03:00:11;;;;;;;35.65;22.10;;;;;;;-0.79;70.94;99694.92;1749778;80;20971;-84
2021/01/30 03:02:38;;;;;;;30.75;22.40;;;;;;;-0.78;70.91;99700.45;1749730;80;21107;-84
2021/01/30 03:05:09;;;;;;;40.95;26.02;;;;;;;-0.80;70.97;99694.53;1749855;80;21337;-83
2021/01/30 03:07:52;;;;;;;36.08;23.12;;;;;;;-0.77;71.06;99703.45;1749761;81;21444;-85
2021/01/30 03:10:38;;;;;;;33.38;21.57;;;;;;;-0.77;71.05;99709.88;1750667;82;20943;-81
2021/01/30 03:13:18;;;;;;;38.10;22.85;;;;;;;-0.74;70.92;99713.64;1749969;80;21018;-84
2021/01/30 03:16:04;;;;;;;34.43;22.22;;;;;;;-0.74;71.02;99710.23;1732513;82;20999;-84
2021/01/30 03:18:35;;;;;;;48.35;28.98;;;;;;;-0.73;70.94;99715.34;1749401;80;20953;-82
2021/01/30 03:21:09;;;;;;;33.15;21.45;;;;;;;-0.71;70.99;99717.44;1749904;82;22253;-82
2021/01/30 03:23:36;;;;;;;34.40;20.37;;;;;;;-0.70;70.98;99713.96;1751114;82;21002;-84
2021/01/30 03:26:08;;;;;;;32.15;20.75;;;;;;;-0.66;70.87;99712.99;1751216;82;21054;-86
2021/01/30 03:28:36;;;;;;;35.68;22.48;;;;;;;-0.66;70.82;99714.28;1751078;82;21444;-86
2021/01/30 03:31:04;;;;;;;35.50;22.13;;;;;;;-0.66;70.73;99716.02;1750870;82;20958;-85
2021/01/30 03:33:32;;;;;;;33.92;21.90;;;;;;;-0.63;70.62;99719.78;1750556;82;21390;-85
2021/01/30 03:36:00;;;;;;;34.65;21.97;;;;;;;-0.64;70.58;99716.82;1742502;81;20971;-84
2021/01/30 03:38:28;;;;;;;36.77;21.15;;;;;;;-0.60;70.48;99721.00;1737594;82;20996;-85
2021/01/30 03:40:56;;;;;;;35.05;21.65;;;;;;;-0.58;70.42;99718.36;1738969;81;20991;-81
2021/01/30 03:43:24;;;;;;;33.65;20.97;;;;;;;-0.55;70.04;99717.00;1739601;82;21090;-81
2021/01/30 03:45:52;;;;;;;34.45;20.70;;;;;;;-0.54;69.93;99707.92;1740097;82;21391;-81
2021/01/30 03:48:21;;;;;;;33.05;19.85;;;;;;;-0.52;69.95;99706.15;1739108;82;20928;-82
2021/01/30 03:50:51;;;;;;;30.23;21.02;;;;;;;-0.48;69.75;99709.04;1738912;82;20950;-81
2021/01/30 03:53:19;;;;;;;33.67;22.17;;;;;;;-0.46;69.72;99712.86;1738303;82;20971;-83
2021/01/30 03:55:47;;;;;;;33.78;20.40;;;;;;;-0.46;69.52;99718.85;1736069;82;21003;-84
2021/01/30 03:58:15;;;;;;;37.80;22.75;;;;;;;-0.49;69.58;99722.81;1736103;82;21382;-85
2021/01/30 04:00:44;;;;;;;42.35;24.47;;;;;;;-0.48;69.70;99714.64;1735955;82;20927;-86
2021/01/30 04:03:12;;;;;;;30.57;19.57;;;;;;;-0.48;69.67;99715.48;1735954;82;21019;-86
2021/01/30 04:05:40;;;;;;;29.30;20.43;;;;;;;-0.42;69.74;99715.30;1736055;82;21373;-86
2021/01/30 04:08:08;;;;;;;29.23;19.23;;;;;;;-0.36;69.65;99712.14;1736068;82;21011;-85
2021/01/30 04:10:37;;;;;;;31.95;21.17;;;;;;;-0.30;69.60;99706.81;1736080;82;21370;-85
2021/01/30 04:13:08;;;;;;;29.70;19.20;;;;;;;-0.27;69.69;99710.56;1736127;82;21051;-82
2021/01/30 04:15:40;;;;;;;34.30;19.60;;;;;;;-0.22;69.41;99713.88;1736067;82;21039;-84
2021/01/30 04:18:08;;;;;;;31.73;21.07;;;;;;;-0.14;68.90;99721.35;1736009;81;21010;-85
2021/01/30 04:20:39;;;;;;;36.83;19.40;;;;;;;-0.12;68.65;99724.73;1735906;82;21007;-84
2021/01/30 04:23:07;;;;;;;39.60;21.05;;;;;;;-0.10;68.49;99721.66;1736080;81;21336;-83
2021/01/30 04:25:35;;;;;;;35.43;21.02;;;;;;;-0.10;68.56;99722.95;1735961;82;21070;-85
2021/01/30 04:28:04;;;;;;;33.58;21.68;;;;;;;-0.07;68.53;99714.69;1735998;82;20959;-86
2021/01/30 04:30:32;;;;;;;37.65;23.25;;;;;;;-0.06;68.41;99715.52;1736047;82;21515;-85
2021/01/30 04:33:01;;;;;;;39.95;24.82;;;;;;;-0.04;67.88;99720.19;1736382;81;20943;-82
2021/01/30 04:35:33;;;;;;;48.87;27.05;;;;;;;-0.06;67.93;99719.39;1738075;81;21821;-84
2021/01/30 04:38:03;;;;;;;41.37;25.02;;;;;;;-0.09;68.01;99714.31;1744231;82;20944;-85
2021/01/30 04:40:43;;;;;;;41.80;25.00;;;;;;;-0.07;68.17;99721.55;1744254;82;20955;-85
2021/01/30 04:43:27;;;;;;;40.05;23.62;;;;;;;-0.07;68.02;99717.27;1744352;82;20927;-87
2021/01/30 04:46:17;;;;;;;37.10;21.45;;;;;;;-0.03;67.83;99704.66;1744452;81;20920;-86
2021/01/30 04:49:02;;;;;;;38.33;21.55;;;;;;;-0.07;67.59;99697.94;1744081;82;21400;-83
2021/01/30 04:51:38;;;;;;;41.00;24.20;;;;;;;-0.12;67.39;99693.80;1744243;82;20987;-85
2021/01/30 04:54:20;;;;;;;36.23;22.05;;;;;;;-0.17;67.59;99696.98;1744038;82;21015;-86
2021/01/30 04:57:29;;;;;;;37.48;22.98;;;;;;;-0.19;67.69;99698.76;1744005;81;21019;-84
2021/01/30 05:00:31;;;;;;;40.75;24.57;;;;;;;-0.22;67.47;99699.25;1744097;82;21437;-84
2021/01/30 05:03:25;;;;;;;44.45;25.10;;;;;;;-0.28;67.73;99705.87;1744391;81;21479;-86
2021/01/30 05:05:58;;;;;;;45.58;27.17;;;;;;;-0.30;67.88;99708.94;1744164;82;20915;-84
2021/01/30 05:08:49;;;;;;;38.17;25.80;;;;;;;-0.33;67.91;99712.90;1744581;81;20971;-84
2021/01/30 05:11:23;;;;;;;43.48;25.52;;;;;;;-0.36;68.08;99716.84;1745021;82;20975;-83
2021/01/30 05:14:01;;;;;;;41.23;25.37;;;;;;;-0.39;68.19;99717.39;1744868;82;20943;-83
2021/01/30 05:16:36;;;;;;;38.60;23.92;;;;;;;-0.46;68.46;99711.58;1744316;82;21481;-84
2021/01/30 05:19:11;;;;;;;39.60;23.77;;;;;;;-0.48;68.57;99716.77;1744267;82;21125;-83
2021/01/30 05:21:50;;;;;;;39.67;24.57;;;;;;;-0.50;68.68;99711.27;1744480;82;21015;-86
2021/01/30 05:24:18;;;;;;;43.85;24.02;;;;;;;-0.53;68.67;99712.20;1744127;81;21070;-84
2021/01/30 05:27:09;;;;;;;35.85;24.10;;;;;;;-0.57;68.82;99718.77;1744127;82;21026;-84
2021/01/30 05:29:58;;;;;;;38.42;24.52;;;;;;;-0.62;69.11;99722.77;1744037;81;21385;-86
2021/01/30 05:32:58;;;;;;;37.83;24.12;;;;;;;-0.61;69.39;99714.59;1739660;81;20979;-84
2021/01/30 05:35:40;;;;;;;34.10;24.92;;;;;;;-0.57;69.48;99717.48;1744702;81;20987;-87
2021/01/30 05:38:24;;;;;;;41.08;24.18;;;;;;;-0.53;69.56;99718.64;1750598;82;20899;-84
2021/01/30 05:41:56;;;;;;;35.58;23.40;;;;;;;-0.41;69.39;99712.27;1890714;75;23419;-85
2021/01/30 05:44:40;;;;;;;33.80;20.90;;;;;;;-0.47;69.12;99709.45;1793212;80;20957;-88
2021/01/30 05:47:22;;;;;;;34.63;22.80;;;;;;;-0.51;69.06;99701.41;1825933;78;21413;-86
2021/01/30 05:50:26;;;;;;;36.83;22.85;;;;;;;-0.51;69.15;99696.69;1739931;80;21019;-85
2021/01/30 05:52:55;;;;;;;37.10;22.07;;;;;;;-0.51;69.17;99695.39;1824712;78;20953;-82
2021/01/30 05:55:35;;;;;;;36.23;24.95;;;;;;;-0.43;69.17;99705.03;1793226;79;20943;-81
2021/01/30 05:58:10;;;;;;;40.38;27.35;;;;;;;-0.38;68.89;99704.90;1824954;78;20918;-84
2021/01/30 06:00:41;;;;;;;38.38;25.72;;;;;;;-0.35;68.48;99695.81;1791691;79;21393;-84
2021/01/30 06:03:17;;;;;;;39.05;26.45;;;;;;;-0.31;68.13;99698.25;1823559;78;21010;-84
2021/01/30 06:05:48;;;;;;;40.90;26.97;;;;;;;-0.31;68.11;99692.23;1791913;79;20911;-84
2021/01/30 06:08:30;;;;;;;40.40;26.80;;;;;;;-0.27;68.05;99703.70;1824451;78;20935;-85
2021/01/30 06:11:12;;;;;;;49.63;31.07;;;;;;;-0.25;67.89;99705.77;1792004;79;21488;-85
2021/01/30 06:13:57;;;;;;;47.05;28.90;;;;;;;-0.18;68.03;99706.87;1823727;78;21362;-85
2021/01/30 06:16:46;;;;;;;46.55;28.98;;;;;;;-0.10;68.04;99705.75;1791055;79;20975;-86
2021/01/30 06:19:18;;;;;;;44.60;28.67;;;;;;;-0.05;68.10;99716.75;1789335;78;21444;-88
2021/01/30 06:21:49;;;;;;;42.03;25.95;;;;;;;0.04;68.15;99710.92;1790792;79;21023;-89
2021/01/30 06:24:29;;;;;;;42.73;25.35;;;;;;;0.07;68.10;99712.97;1823266;78;21473;-89
2021/01/30 06:27:04;;;;;;;34.08;23.80;;;;;;;0.06;68.09;99715.58;1790777;80;21208;-89
2021/01/30 06:29:50;;;;;;;41.88;24.07;;;;;;;-0.04;68.22;99718.91;1823058;78;20918;-86
2021/01/30 06:32:25;;;;;;;37.85;22.67;;;;;;;-0.10;68.39;99726.36;1763393;80;20970;-85
2021/01/30 06:35:15;;;;;;;47.85;25.88;;;;;;;-0.17;68.52;99729.19;1823125;78;20923;-86
2021/01/30 06:37:49;;;;;;;41.25;25.48;;;;;;;-0.21;68.83;99723.27;1780371;79;20995;-86
2021/01/30 06:40:30;;;;;;;40.35;24.98;;;;;;;-0.16;69.04;99723.96;1775685;79;21193;-87
2021/01/30 06:43:21;;;;;;;46.37;25.05;;;;;;;-0.10;68.81;99721.20;1766192;81;21504;-86
2021/01/30 06:45:49;;;;;;;45.50;25.97;;;;;;;-0.03;68.68;99725.73;1764685;81;21050;-87
2021/01/30 06:48:31;;;;;;;37.95;24.57;;;;;;;0.07;68.74;99716.83;1764351;81;20936;-87
2021/01/30 06:51:34;;;;;;;40.70;24.82;;;;;;;0.30;68.62;99716.08;1847973;76;22836;-86
2021/01/30 06:54:28;;;;;;;34.13;22.22;;;;;;;0.37;68.05;99720.14;1818433;78;21405;-87
2021/01/30 06:57:16;;;;;;;33.23;21.82;;;;;;;0.51;67.91;99714.97;1818055;79;21415;-86
2021/01/30 07:00:20;;;;;;;27.15;17.35;;;;;;;0.67;67.21;99707.55;1817981;78;20966;-85
2021/01/30 07:02:53;;;;;;;25.88;18.30;;;;;;;0.77;66.31;99700.74;1818149;79;21480;-82
2021/01/30 07:05:48;;;;;;;31.05;18.45;;;;;;;0.91;65.91;99702.00;1814769;79;20927;-82
2021/01/30 07:08:38;;;;;;;25.55;16.85;;;;;;;1.00;65.26;99708.99;1818167;79;21085;-81
2021/01/30 07:11:33;;;;;;;30.48;19.60;;;;;;;1.09;63.87;99714.70;1817863;78;21029;-81
2021/01/30 07:14:23;;;;;;;24.87;17.70;;;;;;;1.13;64.09;99714.53;1817915;79;20998;-81
2021/01/30 07:16:57;;;;;;;28.55;19.20;;;;;;;1.16;63.75;99711.03;1810088;79;21002;-83
2021/01/30 07:19:40;;;;;;;28.12;17.20;;;;;;;1.18;63.85;99718.27;1818928;78;20931;-84
2021/01/30 07:22:24;;;;;;;26.40;18.80;;;;;;;1.20;63.95;99718.61;1818064;78;21017;-85
2021/01/30 07:25:16;;;;;;;25.05;15.78;;;;;;;1.19;64.10;99713.03;1817919;79;21365;-86
2021/01/30 07:27:49;;;;;;;24.32;18.20;;;;;;;1.22;63.84;99711.65;1818024;79;20942;-86
2021/01/30 07:30:41;;;;;;;25.15;17.15;;;;;;;1.17;64.21;99718.70;1818146;79;20931;-84
2021/01/30 07:33:20;;;;;;;26.27;17.62;;;;;;;1.17;64.34;99713.98;1817912;78;21523;-84
2021/01/30 07:36:08;;;;;;;29.98;16.93;;;;;;;1.20;64.76;99711.28;1817950;77;21281;-82
2021/01/30 07:38:47;;;;;;;22.93;17.20;;;;;;;1.27;64.85;99710.19;1817931;79;21442;-82
2021/01/30 07:41:30;;;;;;;27.58;18.77;;;;;;;1.40;64.96;99706.69;1790031;79;20919;-88
2021/01/30 07:44:16;;;;;;;27.80;18.37;;;;;;;1.53;65.10;99711.78;1801111;78;21141;-83
2021/01/30 07:46:46;;;;;;;30.37;19.62;;;;;;;1.67;64.65;99704.83;1818134;79;20887;-83
2021/01/30 07:49:22;;;;;;;28.85;20.55;;;;;;;1.78;64.24;99712.14;1817911;78;20939;-80
2021/01/30 07:52:01;;;;;;;29.72;20.15;;;;;;;1.86;63.90;99707.53;1817884;79;22170;-85
2021/01/30 07:54:28;;;;;;;28.55;20.32;;;;;;;1.91;63.91;99704.30;1818326;77;21049;-80
2021/01/30 07:57:13;;;;;;;31.00;20.30;;;;;;;1.98;63.96;99695.86;1818245;79;20943;-84
2021/01/30 07:59:56;;;;;;;26.15;19.02;;;;;;;2.04;64.15;99695.16;1818065;78;20950;-83
2021/01/30 08:03:03;;;;;;;30.32;18.95;;;;;;;2.14;63.89;99698.70;1817643;79;21014;-76
2021/01/30 08:05:54;;;;;;;33.75;19.07;;;;;;;2.16;63.90;99698.19;1817481;79;21585;-81
2021/01/30 08:08:41;;;;;;;29.27;19.77;;;;;;;2.15;64.06;99706.83;1816909;79;20930;-84
2021/01/30 08:11:35;;;;;;;35.05;21.95;;;;;;;2.14;64.38;99705.16;1817156;79;21030;-74
2021/01/30 08:14:37;;;;;;;29.77;19.70;;;;;;;2.11;64.79;99701.39;1817588;77;20923;-83
2021/01/30 08:17:19;;;;;;;33.35;19.55;;;;;;;2.12;65.07;99698.75;1779077;79;21008;-80
2021/01/30 08:20:08;;;;;;;29.00;19.52;;;;;;;2.13;65.39;99701.71;1779204;79;21889;-78
2021/01/30 08:23:13;;;;;;;33.53;21.45;;;;;;;2.17;65.78;99697.27;1845895;76;22204;-81
2021/01/30 08:25:51;;;;;;;34.20;18.80;;;;;;;2.08;66.22;99692.84;1818169;77;20926;-80
2021/01/30 08:28:27;;;;;;;29.15;19.35;;;;;;;2.11;66.58;99695.76;1818091;79;21628;-80
2021/01/30 08:30:55;;;;;;;31.40;19.60;;;;;;;2.13;66.87;99693.95;1818123;78;21364;-83
2021/01/30 08:33:26;;;;;;;33.83;20.90;;;;;;;2.19;67.12;99687.70;1818063;77;20935;-84
2021/01/30 08:35:56;;;;;;;32.17;21.27;;;;;;;2.23;67.35;99687.98;1787203;79;21313;-84
2021/01/30 08:38:31;;;;;;;34.95;19.77;;;;;;;2.28;67.80;99682.16;1818311;79;20922;-82
2021/01/30 08:41:04;;;;;;;38.55;20.92;;;;;;;2.31;68.01;99685.89;1818194;78;21365;-81
2021/01/30 08:43:47;;;;;;;36.20;19.60;;;;;;;2.35;68.27;99674.98;1817959;77;21384;-82
2021/01/30 08:46:41;;;;;;;39.00;22.30;;;;;;;2.42;68.42;99675.98;1818032;77;20950;-79
2021/01/30 08:49:23;;;;;;;33.78;19.37;;;;;;;2.49;68.65;99679.15;1817803;78;21049;-76
2021/01/30 08:52:17;;;;;;;31.73;19.87;;;;;;;2.57;68.86;99668.46;1818162;78;20927;-81
2021/01/30 08:54:45;;;;;;;28.77;18.62;;;;;;;2.63;69.04;99667.75;1786250;79;21364;-78
2021/01/30 08:57:37;;;;;;;31.50;19.07;;;;;;;2.71;69.23;99667.41;1817839;79;20956;-75
2021/01/30 09:00:12;;;;;;;27.95;16.82;;;;;;;2.76;69.39;99663.32;1817991;77;20927;-76
2021/01/30 09:02:46;;;;;;;31.87;19.98;;;;;;;2.80;69.59;99656.67;1811765;77;21738;-77
2021/01/30 09:05:28;;;;;;;30.80;20.27;;;;;;;2.79;69.80;99654.14;1818097;78;21365;-80
2021/01/30 09:08:17;;;;;;;36.05;18.87;;;;;;;2.78;70.15;99654.61;1786699;79;21329;-79
2021/01/30 09:10:45;;;;;;;26.15;17.92;;;;;;;2.79;70.68;99648.50;1817810;77;20907;-72
2021/01/30 09:13:18;;;;;;;30.25;18.85;;;;;;;2.80;70.98;99653.22;1817945;77;20914;-73
2021/01/30 09:15:58;;;;;;;37.38;21.60;;;;;;;2.81;71.45;99657.52;1817826;79;20951;-78
2021/01/30 09:18:40;;;;;;;32.98;21.65;;;;;;;2.83;71.62;99646.64;1818012;79;20950;-76
2021/01/30 09:21:32;;;;;;;31.20;20.48;;;;;;;2.88;71.93;99641.63;1818294;78;22364;-82
2021/01/30 09:24:29;;;;;;;35.75;19.62;;;;;;;2.99;72.08;99641.16;1818308;79;21480;-82
2021/01/30 09:27:25;;;;;;;36.00;19.52;;;;;;;3.15;72.07;99641.77;1818179;77;21408;-79
2021/01/30 09:29:53;;;;;;;29.45;19.80;;;;;;;3.29;72.34;99633.77;1812065;79;20931;-80
2021/01/30 09:32:35;;;;;;;39.90;21.50;;;;;;;3.42;72.33;99630.13;1818019;77;21344;-81
2021/01/30 09:35:08;;;;;;;39.15;24.18;;;;;;;3.56;72.69;99623.45;1817622;79;22392;-80
2021/01/30 09:37:43;;;;;;;47.80;25.35;;;;;;;3.73;72.50;99619.17;1817525;79;21444;-81
2021/01/30 09:40:27;;;;;;;46.80;26.93;;;;;;;3.87;71.97;99616.38;1817737;77;21013;-81
2021/01/30 09:43:02;;;;;;;44.00;23.85;;;;;;;3.94;71.66;99615.16;1780031;79;21101;-84
2021/01/30 09:45:30;;;;;;;49.23;25.15;;;;;;;3.90;71.62;99612.32;1817616;79;21081;-79
2021/01/30 09:47:59;;;;;;;45.28;24.63;;;;;;;3.85;71.68;99603.47;1817671;79;21142;-80
2021/01/30 09:50:38;;;;;;;42.60;22.98;;;;;;;3.77;71.82;99606.88;1817528;78;21059;-80
2021/01/30 09:53:13;;;;;;;35.38;22.10;;;;;;;3.71;72.07;99605.44;1818663;77;21030;-85
2021/01/30 09:55:42;;;;;;;34.00;20.80;;;;;;;3.66;72.14;99602.21;1817945;77;20871;-85
2021/01/30 09:58:16;;;;;;;34.15;21.85;;;;;;;3.64;72.46;99597.55;1817546;79;20970;-78
2021/01/30 10:00:45;;;;;;;36.58;19.12;;;;;;;3.62;72.83;99598.08;1787182;79;22347;-74
2021/01/30 10:03:23;;;;;;;43.50;24.40;;;;;;;3.63;73.04;99587.28;1818459;79;20950;-81
2021/01/30 10:05:53;;;;;;;33.95;19.92;;;;;;;3.65;73.25;99569.44;1819063;77;20934;-81
2021/01/30 10:08:26;;;;;;;32.15;21.37;;;;;;;3.70;73.33;99566.16;1788276;79;20951;-77
2021/01/30 10:11:07;;;;;;;37.73;22.48;;;;;;;3.70;73.34;99570.05;1820843;78;20876;-77
2021/01/30 10:13:40;;;;;;;33.18;20.45;;;;;;;3.71;73.49;99559.20;1820557;79;21188;-77
2021/01/30 10:16:18;;;;;;;37.60;21.65;;;;;;;3.72;73.69;99564.33;1820752;79;20988;-72
2021/01/30 10:18:50;;;;;;;29.12;20.23;;;;;;;3.73;73.77;99556.95;1820434;78;20903;-79
2021/01/30 10:21:37;;;;;;;33.55;21.35;;;;;;;3.73;73.96;99555.66;1820388;78;21013;-84
2021/01/30 10:24:18;;;;;;;36.03;22.87;;;;;;;3.79;74.27;99562.27;1819015;79;21034;-77
2021/01/30 10:26:48;;;;;;;39.03;25.12;;;;;;;3.86;74.29;99556.33;1817587;77;21580;-79
2021/01/30 10:29:18;;;;;;;39.70;24.15;;;;;;;3.98;74.24;99567.84;1817418;78;21445;-78
2021/01/30 10:31:59;;;;;;;41.13;24.90;;;;;;;4.03;74.17;99565.41;1817209;77;21002;-79
2021/01/30 10:34:47;;;;;;;39.48;25.50;;;;;;;4.04;74.10;99561.05;1817965;79;20990;-78
2021/01/30 10:37:27;;;;;;;41.37;26.65;;;;;;;4.02;74.17;99555.10;1800787;79;21961;-80
2021/01/30 10:40:04;;;;;;;36.38;22.45;;;;;;;3.96;74.41;99549.78;1815629;79;21026;-77
2021/01/30 10:42:35;;;;;;;35.75;22.32;;;;;;;3.94;74.57;99547.25;1786200;79;21022;-81
2021/01/30 10:45:14;;;;;;;35.98;20.65;;;;;;;3.92;74.78;99548.25;1817389;79;20946;-76
2021/01/30 10:47:41;;;;;;;33.83;23.18;;;;;;;3.94;75.08;99549.02;1817331;79;21357;-75
2021/01/30 10:50:19;;;;;;;38.42;24.50;;;;;;;3.99;75.25;99544.89;1817235;79;21010;-79
2021/01/30 10:52:49;;;;;;;36.60;26.55;;;;;;;4.04;75.23;99551.51;1817215;79;21357;-76
2021/01/30 10:55:30;;;;;;;41.25;27.40;;;;;;;4.08;75.27;99541.36;1817274;78;20955;-80
2021/01/30 10:58:28;;;;;;;38.88;26.35;;;;;;;4.14;75.24;99538.47;1817233;78;21013;-77
2021/01/30 11:01:11;;;;;;;47.13;29.18;;;;;;;4.15;75.21;99538.00;1817211;78;21021;-80
2021/01/30 11:03:50;;;;;;;46.28;27.90;;;;;;;4.07;75.39;99538.41;1786242;79;20998;-74
2021/01/30 11:06:44;;;;;;;42.62;28.47;;;;;;;4.06;75.57;99527.63;1817653;79;21410;-85
2021/01/30 11:09:31;;;;;;;43.25;27.45;;;;;;;4.06;75.77;99525.03;1818032;79;21365;-84
2021/01/30 11:12:16;;;;;;;;;;;;;;;4.05;76.20;99513.00;1820491;79;20986;-81
2021/01/30 11:14:44;;;;;;;48.35;30.17;;;;;;;4.05;76.42;99513.46;1786778;79;20426;-81
2021/01/30 11:17:28;;;;;;;44.58;27.62;;;;;;;4.09;76.70;99502.84;1818128;78;20918;-83
2021/01/30 11:19:59;;;;;;;45.48;27.60;;;;;;;4.16;76.67;99503.38;1817775;77;20995;-85
2021/01/30 11:22:29;;;;;;;39.92;24.23;;;;;;;4.22;76.68;99504.33;1817817;77;20951;-85
2021/01/30 11:25:11;;;;;;;35.78;23.70;;;;;;;4.24;76.68;99495.17;1787321;79;20982;-83
2021/01/30 11:27:46;;;;;;;34.25;21.33;;;;;;;4.24;76.73;99490.81;1817497;79;20990;-82
2021/01/30 11:30:17;;;;;;;;;;;;;;;4.30;76.79;99491.80;1820130;78;20930;-81
2021/01/30 11:32:53;;;;;;;30.57;21.12;;;;;;;4.36;76.94;99491.95;1815203;77;22111;-80
2021/01/30 11:35:36;;;;;;;30.60;20.80;;;;;;;4.42;76.95;99490.31;1818172;79;25122;-84
2021/01/30 11:38:20;;;;;;;35.28;21.57;;;;;;;4.46;76.86;99484.51;1818241;78;20923;-86
2021/01/30 11:40:51;;;;;;;32.53;21.82;;;;;;;4.45;76.86;99483.67;1817950;78;21026;-83
2021/01/30 11:43:19;;;;;;;39.75;22.87;;;;;;;4.47;76.97;99485.73;1817813;77;21579;-81
2021/01/30 11:45:48;;;;;;;38.40;24.10;;;;;;;4.48;76.85;99478.31;1817686;79;21349;-79
2021/01/30 11:48:18;;;;;;;33.15;21.68;;;;;;;4.52;76.89;99481.59;1817255;78;20962;-79
2021/01/30 11:50:51;;;;;;;31.00;20.80;;;;;;;4.52;76.97;99473.80;1817121;78;20931;-75
2021/01/30 11:53:22;;;;;;;30.10;21.27;;;;;;;4.55;77.23;99477.52;1817153;79;21010;-75
2021/01/30 11:55:50;;;;;;;37.03;23.07;;;;;;;4.57;77.30;99470.03;1817297;77;20935;-75
2021/01/30 11:58:21;;;;;;;37.63;23.77;;;;;;;4.61;77.38;99471.18;1817327;79;21127;-76
2021/01/30 12:00:49;;;;;;;31.35;21.65;;;;;;;4.61;77.45;99460.33;1817131;79;20939;-77
2021/01/30 12:03:29;;;;;;;35.55;21.68;;;;;;;4.65;77.49;99456.64;1817084;79;21013;-77
2021/01/30 12:05:57;;;;;;;41.77;20.75;;;;;;;4.69;77.32;99457.30;1817112;79;20994;-76
2021/01/30 12:08:27;;;;;;;24.02;17.17;;;;;;;4.72;77.48;99452.79;1817277;77;21380;-77
2021/01/30 12:10:56;;;;;;;28.52;16.57;;;;;;;4.75;77.55;99453.08;1817117;79;21348;-77